Buoy 51523

sailwx.info

Track history (hours):
 
Tides and Currents Weather Stations Pressure Air Temp Water Temp Dewpoint Dewpoint Depression Visibility Wind Speed Wind Dir Waves Ship Positions

Drifting buoy 51523

Last reported at 2015-Apr-28 14:15 UTC. Time now 2015-Apr-28 15:59 UTC.
Position N 13°19' W 162°14'.

Water temperature 27.4 ° C

Date/timePositionNaut miles runAvg speedWind from/ knotsBaromVisibWave heightAir tempDewpointWater temp
2015-Apr-28 14:15N 13°19' W 162°14'0 0.0 27.4
2015-Apr-28 14:00N 13°19' W 162°14'3 0.7 27.4
2015-Apr-28 09:30N 13°16' W 162°14'0 0.0 27.4
2015-Apr-28 09:15N 13°16' W 162°14'0 0.0 27.4
2015-Apr-28 08:45N 13°16' W 162°14'1 0.3 27.4
2015-Apr-28 04:30N 13°16' W 162°13'0 0.8 27.5
2015-Apr-28 04:15N 13°16' W 162°13'0 0.0 27.5
2015-Apr-28 04:00N 13°16' W 162°13'4 0.5 27.5
2015-Apr-27 19:45N 13°12' W 162°14'0 0.6 27.4
2015-Apr-27 19:00N 13°12' W 162°13'1 0.6 27.4
2015-Apr-27 17:15N 13°11' W 162°13'0 0.0 27.4
2015-Apr-27 17:00N 13°11' W 162°13'2 0.3 27.4
2015-Apr-27 08:00N 13°09' W 162°12'1 0.2 27.5
2015-Apr-27 03:00N 13°09' W 162°12'1 0.4 27.6
2015-Apr-27 00:00N 13°09' W 162°13'0 0.1 27.5
2015-Apr-26 21:00N 13°09' W 162°13'0 0.0 27.4
2015-Apr-26 20:45N 13°09' W 162°13'2 0.3 27.4
2015-Apr-26 16:00N 13°08' W 162°14'1 0.2 27.4
2015-Apr-26 13:00N 13°08' W 162°14'0 0.0 27.4
2015-Apr-26 12:45N 13°08' W 162°14'2 0.5 27.4
2015-Apr-26 07:45N 13°06' W 162°15'2 1.6 27.5
2015-Apr-26 06:45N 13°04' W 162°15'1 0.2 27.5
2015-Apr-26 03:15N 13°04' W 162°15'0 0.5 27.7
2015-Apr-26 03:00N 13°04' W 162°15'1 0.7 27.7
2015-Apr-26 02:00N 13°03' W 162°15'0 0.0 27.6
2015-Apr-26 01:45N 13°03' W 162°15'1 0.8 27.6
2015-Apr-26 00:00N 13°02' W 162°15'2 0.6 27.6
2015-Apr-25 19:45N 12°60' W 162°15'0 0.0 27.4
2015-Apr-25 19:30N 12°60' W 162°15'1 0.4 27.4
2015-Apr-25 16:00N 12°60' W 162°14'0 0.0 27.3
2015-Apr-25 15:45N 12°60' W 162°14'1 1.4 27.3
2015-Apr-25 14:45N 13°00' W 162°15'0 0.0 27.3
2015-Apr-25 14:15N 13°00' W 162°15'0 0.0 27.3
2015-Apr-25 13:00N 13°00' W 162°15'3 0.5 27.3
2015-Apr-25 07:45N 12°58' W 162°14'0 0.1 27.4
2015-Apr-25 04:00N 12°58' W 162°14'0 0.0 27.5
2015-Apr-25 03:45N 12°58' W 162°14'1 2.2 27.5
2015-Apr-25 03:15N 12°56' W 162°14'0 0.0 27.5
2015-Apr-25 03:00N 12°56' W 162°14'1 0.3 27.5
2015-Apr-24 21:45N 12°55' W 162°14'1 0.9 27.4
2015-Apr-24 21:00N 12°55' W 162°13'0 0.0 27.3
2015-Apr-24 20:45N 12°55' W 162°13'1 0.9 27.3
2015-Apr-24 20:00N 12°54' W 162°14'1 2.4 27.3
2015-Apr-24 19:45N 12°55' W 162°13'0 0.1 27.3
2015-Apr-24 17:00N 12°55' W 162°13'0 0.0 27.3
2015-Apr-24 16:45N 12°55' W 162°13'0 0.0 27.3
2015-Apr-24 16:00N 12°55' W 162°13'9 0.5 27.3
2015-Apr-23 20:15N 12°45' W 162°12'1 0.2 27.3
2015-Apr-23 16:15N 12°45' W 162°11'1 3.7 27.3
2015-Apr-23 16:00N 12°44' W 162°12'0 0.0 27.3
2015-Apr-23 15:45N 12°44' W 162°12'5 1.2 27.3
2015-Apr-23 11:45N 12°40' W 162°09'0 0.0 27.3
2015-Apr-23 08:45N 12°40' W 162°09'3 0.9 27.3
2015-Apr-23 05:15N 12°38' W 162°06'2 0.7 27.3
2015-Apr-23 03:00N 12°37' W 162°06'0 0.0 27.4
2015-Apr-23 02:00N 12°37' W 162°06'3 0.6 27.4
2015-Apr-22 20:45N 12°36' W 162°03'0 0.0 27.3
2015-Apr-22 20:30N 12°36' W 162°03'2 3.4 27.3
2015-Apr-22 20:00N 12°37' W 162°02'2 7.6 27.3
2015-Apr-22 19:45N 12°35' W 162°03'2 0.5 27.3
2015-Apr-22 16:00N 12°35' W 162°01'0 0.0 27.3
2015-Apr-22 14:45N 12°35' W 162°01'0 0.0 27.2
2015-Apr-22 13:45N 12°35' W 162°01'3 1.9 27.3
2015-Apr-22 12:00N 12°33' W 161°58'0 0.0 27.3
2015-Apr-22 11:45N 12°33' W 161°58'0 0.0 27.3
2015-Apr-22 09:00N 12°33' W 161°58'0 0.0 27.3
2015-Apr-22 08:15N 12°33' W 161°58'0 0.0 27.3
2015-Apr-22 08:00N 12°33' W 161°58'1 0.2 27.3
2015-Apr-22 04:00N 12°33' W 161°57'2 1.2 27.3
2015-Apr-22 02:00N 12°31' W 161°55'3 2.7 27.3
2015-Apr-22 01:00N 12°29' W 161°54'0 0.0 27.3
2015-Apr-22 00:45N 12°29' W 161°54'0 0.0 27.3
2015-Apr-21 23:15N 12°29' W 161°54'1 0.5 27.3
2015-Apr-21 21:00N 12°29' W 161°53'0 0.0 27.2
2015-Apr-21 19:30N 12°29' W 161°53'0 0.5 27.2
2015-Apr-21 19:15N 12°29' W 161°53'1 0.7 27.2
2015-Apr-21 17:15N 12°28' W 161°52'1 5.7 27.2
2015-Apr-21 17:00N 12°27' W 161°51'0 0.0 27.2
2015-Apr-21 16:45N 12°27' W 161°51'0 0.0 27.2
2015-Apr-21 16:30N 12°27' W 161°51'0 0.0 27.2
2015-Apr-21 15:30N 12°27' W 161°51'0 1.5 27.2
2015-Apr-21 15:15N 12°27' W 161°51'0 0.2 27.2
2015-Apr-21 15:00N 12°27' W 161°51'310.4 27.2
2015-Apr-21 14:45N 12°26' W 161°49'1 0.2 27.2
2015-Apr-21 08:30N 12°25' W 161°48'1 2.7 27.2
2015-Apr-21 08:15N 12°25' W 161°47'0 0.0 27.2
2015-Apr-21 07:45N 12°25' W 161°47'4 1.0 27.2
2015-Apr-21 04:00N 12°23' W 161°44'0 0.0 27.3
2015-Apr-21 03:45N 12°23' W 161°44'3 1.2 27.3
2015-Apr-21 01:00N 12°21' W 161°41'2 0.4 27.3
2015-Apr-20 20:45N 12°21' W 161°40'2 1.8 27.2
2015-Apr-20 19:45N 12°20' W 161°38'0 0.0 27.2
2015-Apr-20 19:00N 12°20' W 161°38'0 0.0 27.2
2015-Apr-20 18:45N 12°20' W 161°38'1 0.7 27.2
2015-Apr-20 16:45N 12°20' W 161°37'0 0.0 27.2
2015-Apr-20 16:00N 12°20' W 161°37'0 0.0 27.2
2015-Apr-20 15:45N 12°20' W 161°37'0 0.0 27.2
2015-Apr-20 15:15N 12°20' W 161°37'0 0.0 27.2
2015-Apr-20 15:00N 12°20' W 161°37'7 1.0 27.2
2015-Apr-20 08:00N 12°16' W 161°31'0 0.0 27.2
2015-Apr-20 07:45N 12°16' W 161°31'1 1.0 27.2
2015-Apr-20 07:00N 12°17' W 161°30'2 1.0 27.3
2015-Apr-20 05:00N 12°16' W 161°28'2 8.1 27.3
2015-Apr-20 04:45N 12°17' W 161°30'4 4.9 27.3
2015-Apr-20 04:00N 12°15' W 161°27'6 0.7 27.3
2015-Apr-19 20:00N 12°14' W 161°21'9 0.7 27.2
2015-Apr-19 06:45N 12°12' W 161°12'1 0.7 27.3
2015-Apr-19 04:45N 12°12' W 161°11'1 0.7 27.3
2015-Apr-19 03:45N 12°12' W 161°11'1 0.8 27.3
2015-Apr-19 03:00N 12°11' W 161°10'0 0.0 27.3
2015-Apr-19 02:45N 12°11' W 161°10'2 0.7 27.3
2015-Apr-19 00:00N 12°11' W 161°08'4 1.0 27.3
2015-Apr-18 19:45N 12°09' W 161°05'0 0.0 27.2
2015-Apr-18 19:30N 12°09' W 161°05'0 0.0 27.2
2015-Apr-18 18:45N 12°09' W 161°05'1 0.6 27.2
2015-Apr-18 17:00N 12°08' W 161°04'   27.2
Track history (hours):
 
Tides and Currents Weather Stations Pressure Air Temp Water Temp Dewpoint Dewpoint Depression Visibility Wind Speed Wind Dir Waves Ship Positions

Drifting buoy 51523

Last reported at 2015-Apr-28 14:15 UTC. Time now 2015-Apr-28 15:59 UTC.
Position N 13°19' W 162°14'.

Water temperature 27.4 ° C

Date/timePositionNaut miles runAvg speedWind from/ knotsBaromVisibWave heightAir tempDewpointWater temp
2015-Apr-28 14:15N 13°19' W 162°14'0 0.0 27.4
2015-Apr-28 14:00N 13°19' W 162°14'3 0.7 27.4
2015-Apr-28 09:30N 13°16' W 162°14'0 0.0 27.4
2015-Apr-28 09:15N 13°16' W 162°14'0 0.0 27.4
2015-Apr-28 08:45N 13°16' W 162°14'1 0.3 27.4
2015-Apr-28 04:30N 13°16' W 162°13'0 0.8 27.5
2015-Apr-28 04:15N 13°16' W 162°13'0 0.0 27.5
2015-Apr-28 04:00N 13°16' W 162°13'4 0.5 27.5
2015-Apr-27 19:45N 13°12' W 162°14'0 0.6 27.4
2015-Apr-27 19:00N 13°12' W 162°13'1 0.6 27.4
2015-Apr-27 17:15N 13°11' W 162°13'0 0.0 27.4
2015-Apr-27 17:00N 13°11' W 162°13'2 0.3 27.4
2015-Apr-27 08:00N 13°09' W 162°12'1 0.2 27.5
2015-Apr-27 03:00N 13°09' W 162°12'1 0.4 27.6
2015-Apr-27 00:00N 13°09' W 162°13'0 0.1 27.5
2015-Apr-26 21:00N 13°09' W 162°13'0 0.0 27.4
2015-Apr-26 20:45N 13°09' W 162°13'2 0.3 27.4
2015-Apr-26 16:00N 13°08' W 162°14'1 0.2 27.4
2015-Apr-26 13:00N 13°08' W 162°14'0 0.0 27.4
2015-Apr-26 12:45N 13°08' W 162°14'2 0.5 27.4
2015-Apr-26 07:45N 13°06' W 162°15'2 1.6 27.5
2015-Apr-26 06:45N 13°04' W 162°15'1 0.2 27.5
2015-Apr-26 03:15N 13°04' W 162°15'0 0.5 27.7
2015-Apr-26 03:00N 13°04' W 162°15'1 0.7 27.7
2015-Apr-26 02:00N 13°03' W 162°15'0 0.0 27.6
2015-Apr-26 01:45N 13°03' W 162°15'1 0.8 27.6
2015-Apr-26 00:00N 13°02' W 162°15'2 0.6 27.6
2015-Apr-25 19:45N 12°60' W 162°15'0 0.0 27.4
2015-Apr-25 19:30N 12°60' W 162°15'1 0.4 27.4
2015-Apr-25 16:00N 12°60' W 162°14'0 0.0 27.3
2015-Apr-25 15:45N 12°60' W 162°14'1 1.4 27.3
2015-Apr-25 14:45N 13°00' W 162°15'0 0.0 27.3
2015-Apr-25 14:15N 13°00' W 162°15'0 0.0 27.3
2015-Apr-25 13:00N 13°00' W 162°15'3 0.5 27.3
2015-Apr-25 07:45N 12°58' W 162°14'0 0.1 27.4
2015-Apr-25 04:00N 12°58' W 162°14'0 0.0 27.5
2015-Apr-25 03:45N 12°58' W 162°14'1 2.2 27.5
2015-Apr-25 03:15N 12°56' W 162°14'0 0.0 27.5
2015-Apr-25 03:00N 12°56' W 162°14'1 0.3 27.5
2015-Apr-24 21:45N 12°55' W 162°14'1 0.9 27.4
2015-Apr-24 21:00N 12°55' W 162°13'0 0.0 27.3
2015-Apr-24 20:45N 12°55' W 162°13'1 0.9 27.3
2015-Apr-24 20:00N 12°54' W 162°14'1 2.4 27.3
2015-Apr-24 19:45N 12°55' W 162°13'0 0.1 27.3
2015-Apr-24 17:00N 12°55' W 162°13'0 0.0 27.3
2015-Apr-24 16:45N 12°55' W 162°13'0 0.0 27.3
2015-Apr-24 16:00N 12°55' W 162°13'9 0.5 27.3
2015-Apr-23 20:15N 12°45' W 162°12'1 0.2 27.3
2015-Apr-23 16:15N 12°45' W 162°11'1 3.7 27.3
2015-Apr-23 16:00N 12°44' W 162°12'0 0.0 27.3
2015-Apr-23 15:45N 12°44' W 162°12'5 1.2 27.3
2015-Apr-23 11:45N 12°40' W 162°09'0 0.0 27.3
2015-Apr-23 08:45N 12°40' W 162°09'3 0.9 27.3
2015-Apr-23 05:15N 12°38' W 162°06'2 0.7 27.3
2015-Apr-23 03:00N 12°37' W 162°06'0 0.0 27.4
2015-Apr-23 02:00N 12°37' W 162°06'3 0.6 27.4
2015-Apr-22 20:45N 12°36' W 162°03'0 0.0 27.3
2015-Apr-22 20:30N 12°36' W 162°03'2 3.4 27.3
2015-Apr-22 20:00N 12°37' W 162°02'2 7.6 27.3
2015-Apr-22 19:45N 12°35' W 162°03'2 0.5 27.3
2015-Apr-22 16:00N 12°35' W 162°01'0 0.0 27.3
2015-Apr-22 14:45N 12°35' W 162°01'0 0.0 27.2
2015-Apr-22 13:45N 12°35' W 162°01'3 1.9 27.3
2015-Apr-22 12:00N 12°33' W 161°58'0 0.0 27.3
2015-Apr-22 11:45N 12°33' W 161°58'0 0.0 27.3
2015-Apr-22 09:00N 12°33' W 161°58'0 0.0 27.3
2015-Apr-22 08:15N 12°33' W 161°58'0 0.0 27.3
2015-Apr-22 08:00N 12°33' W 161°58'1 0.2 27.3
2015-Apr-22 04:00N 12°33' W 161°57'2 1.2 27.3
2015-Apr-22 02:00N 12°31' W 161°55'3 2.7 27.3
2015-Apr-22 01:00N 12°29' W 161°54'0 0.0 27.3
2015-Apr-22 00:45N 12°29' W 161°54'0 0.0 27.3
2015-Apr-21 23:15N 12°29' W 161°54'1 0.5 27.3
2015-Apr-21 21:00N 12°29' W 161°53'0 0.0 27.2
2015-Apr-21 19:30N 12°29' W 161°53'0 0.5 27.2
2015-Apr-21 19:15N 12°29' W 161°53'1 0.7 27.2
2015-Apr-21 17:15N 12°28' W 161°52'1 5.7 27.2
2015-Apr-21 17:00N 12°27' W 161°51'0 0.0 27.2
2015-Apr-21 16:45N 12°27' W 161°51'0 0.0 27.2
2015-Apr-21 16:30N 12°27' W 161°51'0 0.0 27.2
2015-Apr-21 15:30N 12°27' W 161°51'0 1.5 27.2
2015-Apr-21 15:15N 12°27' W 161°51'0 0.2 27.2
2015-Apr-21 15:00N 12°27' W 161°51'310.4 27.2
2015-Apr-21 14:45N 12°26' W 161°49'1 0.2 27.2
2015-Apr-21 08:30N 12°25' W 161°48'1 2.7 27.2
2015-Apr-21 08:15N 12°25' W 161°47'0 0.0 27.2
2015-Apr-21 07:45N 12°25' W 161°47'4 1.0 27.2
2015-Apr-21 04:00N 12°23' W 161°44'0 0.0 27.3
2015-Apr-21 03:45N 12°23' W 161°44'3 1.2 27.3
2015-Apr-21 01:00N 12°21' W 161°41'2 0.4 27.3
2015-Apr-20 20:45N 12°21' W 161°40'2 1.8 27.2
2015-Apr-20 19:45N 12°20' W 161°38'0 0.0 27.2
2015-Apr-20 19:00N 12°20' W 161°38'0 0.0 27.2
2015-Apr-20 18:45N 12°20' W 161°38'1 0.7 27.2
2015-Apr-20 16:45N 12°20' W 161°37'0 0.0 27.2
2015-Apr-20 16:00N 12°20' W 161°37'0 0.0 27.2
2015-Apr-20 15:45N 12°20' W 161°37'0 0.0 27.2
2015-Apr-20 15:15N 12°20' W 161°37'0 0.0 27.2
2015-Apr-20 15:00N 12°20' W 161°37'7 1.0 27.2
2015-Apr-20 08:00N 12°16' W 161°31'0 0.0 27.2
2015-Apr-20 07:45N 12°16' W 161°31'1 1.0 27.2
2015-Apr-20 07:00N 12°17' W 161°30'2 1.0 27.3
2015-Apr-20 05:00N 12°16' W 161°28'2 8.1 27.3
2015-Apr-20 04:45N 12°17' W 161°30'4 4.9 27.3
2015-Apr-20 04:00N 12°15' W 161°27'6 0.7 27.3
2015-Apr-19 20:00N 12°14' W 161°21'9 0.7 27.2
2015-Apr-19 06:45N 12°12' W 161°12'1 0.7 27.3
2015-Apr-19 04:45N 12°12' W 161°11'1 0.7 27.3
2015-Apr-19 03:45N 12°12' W 161°11'1 0.8 27.3
2015-Apr-19 03:00N 12°11' W 161°10'0 0.0 27.3
2015-Apr-19 02:45N 12°11' W 161°10'2 0.7 27.3
2015-Apr-19 00:00N 12°11' W 161°08'4 1.0 27.3
2015-Apr-18 19:45N 12°09' W 161°05'0 0.0 27.2
2015-Apr-18 19:30N 12°09' W 161°05'0 0.0 27.2
2015-Apr-18 18:45N 12°09' W 161°05'1 0.6 27.2
2015-Apr-18 17:00N 12°08' W 161°04'   27.2

Dump ship's entire track history